Dingxi, China
Current Conditions -  °F | °C
As of 1:00 AM on Saturday 27 Dec 2014 (Local Time) from ZLLL Reporting Station
Smoke Smoke  
Wind Chill:   Ceiling: Unl
Heat Index: 12°   Visibility: 2.8mi
Dew Point:   Wind: 9mph
Humidity: 73%   Direction: 340°NNW
Pressure: 30.33"   Gusts: NA
Location:  35.55°N, 104.53°E
Report Text: ZLLL 261700Z 34004MPS 4500 FU NSC M11/M15 Q1027 NOSIG
Loading
Personal Weather Stations






























Interactive Weather Map New forecast layout! Learn more

10-Day Weather Forecast

Advertisements
Track Severe Weather on mobile